Meniu

AB meteo

EYSA 55 53 38N 023 23 42E

Hello!

Welcome to AB meteo!
Here you can find links to actual weather data and weather forecast.

Posted by moose 2009 January 13 Tuesday 23:40:26

METAR

18156934 28 EYSA 190950Z 19009KT 9999 OVC006 02/02 Q0998 R14L/29//95 R14R/29//95 YLO1 BECMG OVC007 GRN

TAF

220573886 9 TAF EYSA 190802Z 1909/1918 19012KT 5000 BR BKN005 OVC010 TEMPO 1909/1912 BKN003 TEMPO 1912/1918 3000 SHRA BKN003 BKN015CB